Aérodrome :







RETROUVEZ-NOUS SUR...

 
LOGIN :

S'inscrire | Disclaimer

   EN    FR    IT 

 









Légende :    VFR   VFR Marginal   IFR   IFR Intensif   IFR Très Intensif
Visi : 
Plafond : 
>= 8 km
>= 3000ft
5 à 8 km
1000 à 3000 ft
1500m à 5 km
500 à 1000 ft
800 à 1500m
200 à 500 ft
< 800m
< 200 ft
Symboles :   Orages  Brouillard  Fortes neiges  Fortes précipitations  Vent > 20 kt






- Altitude de l'aérodrome : 1040 ft


KAFN - Jaffrey Silver Ranch

DERNIER METAR :
  • 202152Z AUTO 27004KT 10SM SCT060 M04/M14 A3029 RMK AO2 SLP283 T10441144

METARs EXPIRÉS :
  • 202052Z AUTO 26006KT 10SM BKN049 OVC060 M04/M14 A3028 RMK AO2 SLP278 T10391144 53001
  • 201952Z AUTO VRB05KT 10SM BKN050 M04/M15 A3027 RMK AO2 SLP273 T10391150
  • 201852Z AUTO 31005G15KT 10SM SCT050 M04/M16 A3027 RMK AO2 SLP272 T10391156

TAF N/A



MET'MAP, la Météo Aéronautique d'un coup d'oeil ! - Copyright ORBIFLY Décembre 2007 - Disclaimer

ORBIFLY MET'MAP TEAM :

Programmation & Développement : Alexandra Zaïnal
Sur une idée originale de : Baudouin d'Aumeries
Assistance à la programmation : Marc-Olivier Méhu
Soutien technique & logistique : Manuel Goepfert

Contact : metmap@orbifly.com




SOURCES & CREDITS :

   NOAA